Time;durP1;ratioP1;P1;durP2;ratioP2;P2;SDS_P1;SDS_P2;PMS_P1;PMS_P2;Temp;Humidity;BMP_temperature;BMP_pressure;BME280_temperature;BME280_humidity;BME280_pressure;Samples;Min_cycle;Max_cycle;Signal;HPM_P1;HPM_P2
2021/05/03 00:02:17;;;;;;;25.80;3.42;;;;;;;;;;5067695;28;20614;-56
2021/05/03 00:04:45;;;;;;;20.88;2.42;;;;;;;;;;5070705;28;20030;-56
2021/05/03 00:07:12;;;;;;;22.38;2.30;;;;;;;;;;5067550;28;20423;-58
2021/05/03 00:09:39;;;;;;;17.77;2.67;;;;;;;;;;5066694;28;20052;-58
2021/05/03 00:12:06;;;;;;;15.95;2.40;;;;;;;;;;5066960;28;20028;-53
2021/05/03 00:14:33;;;;;;;13.93;2.55;;;;;;;;;;5063281;28;20378;-57
2021/05/03 00:17:00;;;;;;;16.52;2.97;;;;;;;;;;5065633;28;20028;-57
2021/05/03 00:19:27;;;;;;;33.63;2.63;;;;;;;;;;5070332;28;20032;-56
2021/05/03 00:21:54;;;;;;;21.20;2.67;;;;;;;;;;5060336;28;20025;-57
2021/05/03 00:24:21;;;;;;;19.73;2.92;;;;;;;;;;5063980;28;20048;-58
2021/05/03 00:26:49;;;;;;;19.48;2.97;;;;;;;;;;5055214;28;20028;-57
2021/05/03 00:29:16;;;;;;;12.93;2.53;;;;;;;;;;5050292;28;20039;-58
2021/05/03 00:31:43;;;;;;;29.23;2.47;;;;;;;;;;5066841;28;20024;-57
2021/05/03 00:34:10;;;;;;;24.20;2.72;;;;;;;;;;5065852;28;20095;-53
2021/05/03 00:36:37;;;;;;;14.38;2.70;;;;;;;;;;5067168;28;20490;-58
2021/05/03 00:39:04;;;;;;;16.13;2.13;;;;;;;;;;5064987;28;20037;-57
2021/05/03 00:41:31;;;;;;;16.40;2.33;;;;;;;;;;5061676;28;20032;-59
2021/05/03 00:43:58;;;;;;;18.20;2.33;;;;;;;;;;5044169;28;20041;-58
2021/05/03 00:46:27;;;;;;;12.55;1.95;;;;;;;;;;5062862;28;20377;-54
2021/05/03 00:48:54;;;;;;;14.32;2.20;;;;;;;;;;5063130;28;20024;-56
2021/05/03 00:51:21;;;;;;;14.65;2.03;;;;;;;;;;5068513;28;20100;-57
2021/05/03 00:53:48;;;;;;;9.35;1.90;;;;;;;;;;5067134;28;20065;-58
2021/05/03 00:56:15;;;;;;;10.95;2.17;;;;;;;;;;5063539;28;20036;-56
2021/05/03 00:58:43;;;;;;;13.63;2.47;;;;;;;;;;5065714;28;20044;-58
2021/05/03 01:01:10;;;;;;;11.88;2.58;;;;;;;;;;5060024;28;20397;-58
2021/05/03 01:03:37;;;;;;;22.33;2.97;;;;;;;;;;5068408;28;20034;-56
2021/05/03 01:06:04;;;;;;;16.65;2.30;;;;;;;;;;5055972;28;20056;-57
2021/05/03 01:08:31;;;;;;;13.60;2.20;;;;;;;;;;5048401;28;20033;-57
2021/05/03 01:11:01;;;;;;;9.57;2.20;;;;;;;;;;5053466;28;20082;-57
2021/05/03 01:13:28;;;;;;;12.20;2.85;;;;;;;;;;5058490;28;20064;-53
2021/05/03 01:15:55;;;;;;;16.05;2.55;;;;;;;;;;5053386;28;20432;-56
2021/05/03 01:18:25;;;;;;;15.70;2.28;;;;;;;;;;5056499;28;20037;-55
2021/05/03 01:20:56;;;;;;;21.70;2.38;;;;;;;;;;5062816;28;20029;-58
2021/05/03 01:23:23;;;;;;;13.32;2.05;;;;;;;;;;5061047;28;20017;-58
2021/05/03 01:25:50;;;;;;;21.23;2.08;;;;;;;;;;5064835;28;20086;-57
2021/05/03 01:28:17;;;;;;;6.70;2.20;;;;;;;;;;5062516;28;20023;-56
2021/05/03 01:30:46;;;;;;;12.77;2.05;;;;;;;;;;5058151;28;20035;-56
2021/05/03 01:33:14;;;;;;;10.52;2.28;;;;;;;;;;5060230;28;20025;-57
2021/05/03 01:35:43;;;;;;;24.10;2.10;;;;;;;;;;5072518;28;20060;-57
2021/05/03 01:38:10;;;;;;;13.65;2.10;;;;;;;;;;5065592;28;20033;-58
2021/05/03 01:40:40;;;;;;;16.42;1.92;;;;;;;;;;5061758;28;20020;-56
2021/05/03 01:43:27;;;;;;;18.42;2.20;;;;;;;;;;5059266;28;20108;-58
2021/05/03 01:45:55;;;;;;;13.27;2.00;;;;;;;;;;5054637;28;20021;-56
2021/05/03 01:48:24;;;;;;;8.35;2.00;;;;;;;;;;5051948;28;20417;-56
2021/05/03 01:50:52;;;;;;;10.90;1.80;;;;;;;;;;5040178;28;20021;-57
2021/05/03 01:53:19;;;;;;;20.30;2.53;;;;;;;;;;5054531;28;20024;-56
2021/05/03 01:55:50;;;;;;;12.90;1.83;;;;;;;;;;5053690;28;20025;-58
2021/05/03 01:58:17;;;;;;;12.75;1.75;;;;;;;;;;5072702;28;20083;-57
2021/05/03 02:00:44;;;;;;;8.18;1.90;;;;;;;;;;5080536;28;20504;-60
2021/05/03 02:03:22;;;;;;;11.75;2.53;;;;;;;;;;5082647;28;20501;-57
2021/05/03 02:05:49;;;;;;;13.90;1.83;;;;;;;;;;5078465;28;20035;-58
2021/05/03 02:08:16;;;;;;;13.23;2.03;;;;;;;;;;5081922;28;20061;-59
2021/05/03 02:10:44;;;;;;;8.15;1.50;;;;;;;;;;5082972;28;20020;-59
2021/05/03 02:13:11;;;;;;;11.95;2.25;;;;;;;;;;5064884;28;20050;-60
2021/05/03 02:15:39;;;;;;;12.80;2.13;;;;;;;;;;5080171;28;20036;-59
2021/05/03 02:18:06;;;;;;;9.43;1.85;;;;;;;;;;5082788;28;20388;-60
2021/05/03 02:20:34;;;;;;;12.82;1.85;;;;;;;;;;5081434;28;20686;-60
2021/05/03 02:23:01;;;;;;;5.53;1.42;;;;;;;;;;5083625;28;20013;-58
2021/05/03 02:25:28;;;;;;;10.23;1.23;;;;;;;;;;5062545;28;20031;-59
2021/05/03 02:27:55;;;;;;;6.72;1.50;;;;;;;;;;5080722;28;20069;-59
2021/05/03 02:30:22;;;;;;;7.43;1.77;;;;;;;;;;5080665;28;20075;-54
2021/05/03 02:32:49;;;;;;;7.00;1.90;;;;;;;;;;5081017;28;20219;-59
2021/05/03 02:35:17;;;;;;;9.70;1.58;;;;;;;;;;5082766;28;20039;-59
2021/05/03 02:37:47;;;;;;;8.60;1.83;;;;;;;;;;5081048;28;20113;-59
2021/05/03 02:40:15;;;;;;;6.60;1.40;;;;;;;;;;5073462;28;20040;-59
2021/05/03 02:42:42;;;;;;;7.20;1.55;;;;;;;;;;5072361;28;20025;-59
2021/05/03 02:45:09;;;;;;;7.68;1.50;;;;;;;;;;5072076;28;20021;-59
2021/05/03 02:47:36;;;;;;;8.75;1.63;;;;;;;;;;5072118;28;20024;-60
2021/05/03 02:50:03;;;;;;;5.22;1.40;;;;;;;;;;5066431;28;20422;-58
2021/05/03 02:52:30;;;;;;;9.90;1.40;;;;;;;;;;5054269;28;20028;-57
2021/05/03 02:54:57;;;;;;;4.22;1.48;;;;;;;;;;5052231;28;20108;-52
2021/05/03 02:57:24;;;;;;;6.75;1.63;;;;;;;;;;5051126;28;20083;-59
2021/05/03 02:59:53;;;;;;;7.75;1.48;;;;;;;;;;5070752;28;20139;-60
2021/05/03 03:02:20;;;;;;;2.90;1.17;;;;;;;;;;5071616;28;20156;-54
2021/05/03 03:04:47;;;;;;;7.97;1.45;;;;;;;;;;5072285;28;20110;-57
2021/05/03 03:07:14;;;;;;;4.93;1.35;;;;;;;;;;5071230;28;20023;-57
2021/05/03 03:09:41;;;;;;;4.00;1.20;;;;;;;;;;5071818;28;20029;-60
2021/05/03 03:12:10;;;;;;;3.58;1.45;;;;;;;;;;5053925;28;20445;-57
2021/05/03 03:14:38;;;;;;;7.18;1.40;;;;;;;;;;5071713;28;20032;-59
2021/05/03 03:17:05;;;;;;;5.50;1.58;;;;;;;;;;5072101;28;20060;-59
2021/05/03 03:19:32;;;;;;;8.15;1.70;;;;;;;;;;5063181;28;20036;-59
2021/05/03 03:21:59;;;;;;;4.43;1.55;;;;;;;;;;5072076;28;20375;-59
2021/05/03 03:24:26;;;;;;;3.22;1.42;;;;;;;;;;5071425;28;20499;-56
2021/05/03 03:26:53;;;;;;;4.43;1.42;;;;;;;;;;5071781;28;20036;-60
2021/05/03 03:29:20;;;;;;;5.43;1.50;;;;;;;;;;5071277;28;20095;-59
2021/05/03 03:31:47;;;;;;;3.30;1.40;;;;;;;;;;5071922;28;20096;-61
2021/05/03 03:34:14;;;;;;;5.50;1.35;;;;;;;;;;5071289;28;20023;-60
2021/05/03 03:36:41;;;;;;;3.88;1.30;;;;;;;;;;5071969;28;20124;-60
2021/05/03 03:39:09;;;;;;;4.80;1.50;;;;;;;;;;5071085;28;20116;-60
2021/05/03 03:41:36;;;;;;;5.60;1.50;;;;;;;;;;5071668;28;20032;-58
2021/05/03 03:44:04;;;;;;;3.08;1.30;;;;;;;;;;5053260;28;20085;-57
2021/05/03 03:46:31;;;;;;;3.47;1.50;;;;;;;;;;5071688;28;20017;-58
2021/05/03 03:48:58;;;;;;;10.48;1.88;;;;;;;;;;5071155;28;20020;-57
2021/05/03 03:51:25;;;;;;;6.05;1.40;;;;;;;;;;5071474;28;20066;-59
2021/05/03 03:53:54;;;;;;;6.75;1.52;;;;;;;;;;5071570;28;20028;-60
2021/05/03 03:56:22;;;;;;;3.67;1.25;;;;;;;;;;5070982;28;20100;-60
2021/05/03 03:58:50;;;;;;;4.65;1.60;;;;;;;;;;5053778;28;20132;-57
2021/05/03 04:01:17;;;;;;;5.60;1.42;;;;;;;;;;5051050;28;20040;-59
2021/05/03 04:03:52;;;;;;;4.45;1.42;;;;;;;;;;5051556;28;20025;-58
2021/05/03 04:06:56;;;;;;;3.65;1.30;;;;;;;;;;5050860;28;20029;-58
2021/05/03 04:25:53;;;;;;;4.15;1.40;;;;;;;;;;5054402;28;20029;-59
2021/05/03 04:28:20;;;;;;;2.10;1.02;;;;;;;;;;5054859;28;20092;-59
2021/05/03 04:30:47;;;;;;;2.63;1.33;;;;;;;;;;5054687;28;20025;-59
2021/05/03 04:33:14;;;;;;;3.47;1.20;;;;;;;;;;5054050;28;20108;-59
2021/05/03 04:35:41;;;;;;;3.03;1.20;;;;;;;;;;5054528;28;20074;-59
2021/05/03 04:38:08;;;;;;;5.65;1.60;;;;;;;;;;5054189;28;20033;-59
2021/05/03 04:40:35;;;;;;;3.78;1.45;;;;;;;;;;5054212;28;20021;-58
2021/05/03 04:43:02;;;;;;;2.97;1.17;;;;;;;;;;5054134;28;20053;-58
2021/05/03 04:45:29;;;;;;;4.35;1.45;;;;;;;;;;5054699;28;20025;-59
2021/05/03 04:47:56;;;;;;;5.50;1.08;;;;;;;;;;5054123;28;20087;-59
2021/05/03 04:50:23;;;;;;;3.00;1.40;;;;;;;;;;5054148;28;20025;-59
2021/05/03 04:52:52;;;;;;;2.95;1.33;;;;;;;;;;5032976;28;20026;-58
2021/05/03 04:55:19;;;;;;;3.03;1.30;;;;;;;;;;5052696;28;20112;-55
2021/05/03 04:57:46;;;;;;;4.20;1.40;;;;;;;;;;5053586;28;20511;-56
2021/05/03 05:00:14;;;;;;;2.42;1.27;;;;;;;;;;5053937;28;20090;-59
2021/05/03 05:02:42;;;;;;;3.00;1.40;;;;;;;;;;5053573;28;20040;-60
2021/05/03 05:05:11;;;;;;;4.43;1.23;;;;;;;;;;5054104;28;20020;-59
2021/05/03 05:07:38;;;;;;;3.58;1.48;;;;;;;;;;5053583;28;20107;-59
2021/05/03 05:10:06;;;;;;;3.88;1.33;;;;;;;;;;5053762;28;20052;-57
2021/05/03 05:12:33;;;;;;;2.78;1.38;;;;;;;;;;5053962;28;20024;-60
2021/05/03 05:15:00;;;;;;;4.50;1.63;;;;;;;;;;5032418;28;20385;-58
2021/05/03 05:17:27;;;;;;;4.40;1.40;;;;;;;;;;5053566;28;20025;-59
2021/05/03 05:19:55;;;;;;;3.40;1.63;;;;;;;;;;5053160;28;20033;-59
2021/05/03 05:22:22;;;;;;;2.63;1.23;;;;;;;;;;5053861;28;20017;-58
2021/05/03 05:24:49;;;;;;;4.85;1.90;;;;;;;;;;5053411;28;20025;-58
2021/05/03 05:27:16;;;;;;;3.47;1.83;;;;;;;;;;5053865;28;20070;-59
2021/05/03 05:29:43;;;;;;;9.02;1.98;;;;;;;;;;5031679;28;20025;-59
2021/05/03 05:32:10;;;;;;;5.18;1.35;;;;;;;;;;5050981;28;20021;-59
2021/05/03 05:34:37;;;;;;;3.67;1.38;;;;;;;;;;5053133;28;20033;-56
2021/05/03 05:37:04;;;;;;;3.70;1.85;;;;;;;;;;5053456;28;20469;-59
2021/05/03 05:39:31;;;;;;;3.47;1.50;;;;;;;;;;5053122;28;20058;-58
2021/05/03 05:41:58;;;;;;;4.13;1.95;;;;;;;;;;5053125;28;20017;-59
2021/05/03 05:44:25;;;;;;;4.80;1.77;;;;;;;;;;5052656;28;20362;-58
2021/05/03 05:46:52;;;;;;;4.05;1.55;;;;;;;;;;5053404;28;20021;-60
2021/05/03 05:49:19;;;;;;;3.90;1.50;;;;;;;;;;5053272;28;20103;-60
2021/05/03 05:51:46;;;;;;;3.85;1.80;;;;;;;;;;5052504;28;20029;-59
2021/05/03 05:54:13;;;;;;;2.80;1.50;;;;;;;;;;5053248;28;20032;-54
2021/05/03 05:56:40;;;;;;;2.35;1.50;;;;;;;;;;5052680;28;20027;-58
2021/05/03 05:59:08;;;;;;;3.25;1.83;;;;;;;;;;5052941;28;20056;-59
2021/05/03 06:01:35;;;;;;;5.78;2.08;;;;;;;;;;5052812;28;20016;-59
2021/05/03 06:04:02;;;;;;;5.55;2.30;;;;;;;;;;5053031;28;20023;-57
2021/05/03 06:06:29;;;;;;;3.78;1.88;;;;;;;;;;5052389;28;20408;-59
2021/05/03 06:08:56;;;;;;;5.13;2.15;;;;;;;;;;5053172;28;20044;-58
2021/05/03 06:11:23;;;;;;;5.95;2.13;;;;;;;;;;5052018;28;20029;-58
2021/05/03 06:13:50;;;;;;;4.07;2.25;;;;;;;;;;5052965;28;20020;-60
2021/05/03 06:16:17;;;;;;;6.47;2.47;;;;;;;;;;5032814;28;20056;-58
2021/05/03 06:18:44;;;;;;;3.80;2.10;;;;;;;;;;5052698;28;20036;-55
2021/05/03 06:21:11;;;;;;;3.97;2.03;;;;;;;;;;5051828;28;20461;-57
2021/05/03 06:23:38;;;;;;;3.92;2.00;;;;;;;;;;5052863;28;20104;-58
2021/05/03 06:26:05;;;;;;;4.80;2.30;;;;;;;;;;5052746;28;20049;-58
2021/05/03 06:28:32;;;;;;;3.85;2.17;;;;;;;;;;5052063;28;20048;-57
2021/05/03 06:30:59;;;;;;;4.00;2.10;;;;;;;;;;5052506;28;20500;-56
2021/05/03 06:33:26;;;;;;;6.13;2.60;;;;;;;;;;5052199;28;20100;-56
2021/05/03 06:35:54;;;;;;;5.60;2.30;;;;;;;;;;5052354;28;20021;-58
2021/05/03 06:38:21;;;;;;;5.18;2.38;;;;;;;;;;5051984;28;20469;-57
2021/05/03 06:40:48;;;;;;;5.07;2.45;;;;;;;;;;5051951;28;20658;-58
2021/05/03 06:43:15;;;;;;;5.70;2.60;;;;;;;;;;5031843;28;20386;-57
2021/05/03 06:45:43;;;;;;;5.82;2.20;;;;;;;;;;5052578;28;20086;-58
2021/05/03 06:48:10;;;;;;;6.03;2.55;;;;;;;;;;5051708;28;20094;-57
2021/05/03 06:50:40;;;;;;;5.60;3.03;;;;;;;;;;5052030;28;20511;-55
2021/05/03 06:53:07;;;;;;;5.70;2.42;;;;;;;;;;5051821;28;20025;-55
2021/05/03 06:55:34;;;;;;;4.75;2.63;;;;;;;;;;5052575;28;20024;-58
2021/05/03 06:58:01;;;;;;;5.30;3.05;;;;;;;;;;5051783;28;20040;-55
2021/05/03 07:00:28;;;;;;;5.72;2.78;;;;;;;;;;5052022;28;20508;-57
2021/05/03 07:02:55;;;;;;;9.52;3.47;;;;;;;;;;5052062;28;20473;-58
2021/05/03 07:05:22;;;;;;;5.78;2.97;;;;;;;;;;5051628;28;20060;-58
2021/05/03 07:07:49;;;;;;;7.03;3.03;;;;;;;;;;5052273;28;20034;-55
2021/05/03 07:10:16;;;;;;;6.72;3.10;;;;;;;;;;5051728;28;20070;-60
2021/05/03 07:12:47;;;;;;;7.30;3.35;;;;;;;;;;5051826;28;20082;-60
2021/05/03 07:15:14;;;;;;;9.27;3.42;;;;;;;;;;5051475;28;20392;-60
2021/05/03 07:17:41;;;;;;;5.28;3.10;;;;;;;;;;5052055;28;20036;-60
2021/05/03 07:20:09;;;;;;;6.80;3.55;;;;;;;;;;5051392;28;20041;-60
2021/05/03 07:22:37;;;;;;;8.27;3.60;;;;;;;;;;5051710;28;20095;-59
2021/05/03 07:25:05;;;;;;;6.75;3.50;;;;;;;;;;5051468;28;20036;-58
2021/05/03 07:27:32;;;;;;;7.32;4.07;;;;;;;;;;5051875;28;20020;-60
2021/05/03 07:29:59;;;;;;;9.30;4.68;;;;;;;;;;5051270;28;20029;-60
2021/05/03 07:32:26;;;;;;;8.90;3.92;;;;;;;;;;5051570;28;20029;-60
2021/05/03 07:34:53;;;;;;;7.05;3.80;;;;;;;;;;5051409;28;20092;-60
2021/05/03 07:37:20;;;;;;;8.10;3.90;;;;;;;;;;5051767;28;20053;-61
2021/05/03 07:39:47;;;;;;;7.10;3.80;;;;;;;;;;5051314;28;20037;-58
2021/05/03 07:42:14;;;;;;;7.82;3.97;;;;;;;;;;5031538;28;20017;-60
2021/05/03 07:44:41;;;;;;;9.43;4.30;;;;;;;;;;5051698;28;20494;-60
2021/05/03 07:47:08;;;;;;;10.25;4.85;;;;;;;;;;5051332;28;20447;-60
2021/05/03 07:49:39;;;;;;;12.05;4.38;;;;;;;;;;5051616;28;20036;-57
2021/05/03 07:52:09;;;;;;;8.60;4.55;;;;;;;;;;5050877;28;20083;-59
2021/05/03 07:54:36;;;;;;;11.43;5.13;;;;;;;;;;5053950;28;20029;-59
2021/05/03 07:57:03;;;;;;;10.23;4.70;;;;;;;;;;5054883;28;20048;-60
2021/05/03 07:59:30;;;;;;;8.20;4.45;;;;;;;;;;5055331;28;20374;-60
2021/05/03 08:01:57;;;;;;;11.50;4.63;;;;;;;;;;5054720;28;20035;-56
2021/05/03 08:04:24;;;;;;;9.05;4.97;;;;;;;;;;5055435;28;20119;-59
2021/05/03 08:06:57;;;;;;;9.57;4.80;;;;;;;;;;5054857;28;20138;-59
2021/05/03 08:09:24;;;;;;;10.48;5.00;;;;;;;;;;5055140;28;20033;-59
2021/05/03 08:11:52;;;;;;;8.70;4.50;;;;;;;;;;5017347;28;20021;-59
2021/05/03 08:14:20;;;;;;;9.93;4.82;;;;;;;;;;5053277;28;20039;-60
2021/05/03 08:17:11;;;;;;;9.45;4.70;;;;;;;;;;5054395;28;20029;-59
2021/05/03 08:19:35;;;;;;;8.80;4.78;;;;;;;;;;5054280;28;20080;-60
2021/05/03 08:22:02;;;;;;;8.98;4.60;;;;;;;;;;5033372;28;20389;-60
2021/05/03 08:24:30;;;;;;;9.45;4.72;;;;;;;;;;5054506;28;20025;-58
2021/05/03 08:26:59;;;;;;;10.07;4.72;;;;;;;;;;5054394;28;20024;-59
2021/05/03 08:29:26;;;;;;;8.95;4.47;;;;;;;;;;5054848;28;20029;-60
2021/05/03 08:31:54;;;;;;;10.07;5.05;;;;;;;;;;5054527;28;20032;-58
2021/05/03 08:34:21;;;;;;;8.63;4.50;;;;;;;;;;5054534;28;20021;-55
2021/05/03 08:36:50;;;;;;;8.07;4.28;;;;;;;;;;5054766;28;20025;-60
2021/05/03 08:39:17;;;;;;;10.20;5.10;;;;;;;;;;5054124;28;20072;-59
2021/05/03 08:41:44;;;;;;;8.07;4.22;;;;;;;;;;5054495;28;20043;-58
2021/05/03 08:44:11;;;;;;;10.60;5.07;;;;;;;;;;5053943;28;20028;-61
2021/05/03 08:46:42;;;;;;;9.10;4.78;;;;;;;;;;5054681;28;20020;-59
2021/05/03 08:49:22;;;;;;;12.20;4.75;;;;;;;;;;5053726;28;20090;-59
2021/05/03 08:54:36;;;;;;;8.63;4.60;;;;;;;;;;5053457;28;20022;-55
2021/05/03 08:57:07;;;;;;;11.10;5.13;;;;;;;;;;5054351;28;20104;-57
2021/05/03 08:59:38;;;;;;;13.85;4.75;;;;;;;;;;5053825;28;20044;-55
2021/05/03 09:02:05;;;;;;;8.10;4.28;;;;;;;;;;5033056;28;20021;-57
2021/05/03 09:04:33;;;;;;;9.93;3.90;;;;;;;;;;5053083;28;20080;-57
2021/05/03 09:07:06;;;;;;;8.60;4.60;;;;;;;;;;5054169;28;20058;-58
2021/05/03 09:09:40;;;;;;;9.63;4.18;;;;;;;;;;5053815;28;20028;-57
2021/05/03 09:12:09;;;;;;;8.65;4.40;;;;;;;;;;5053884;28;20539;-58
2021/05/03 09:14:45;;;;;;;9.70;4.57;;;;;;;;;;5053124;28;20083;-58
2021/05/03 09:17:22;;;;;;;8.60;4.50;;;;;;;;;;5053987;28;20021;-56
2021/05/03 09:19:49;;;;;;;9.07;4.22;;;;;;;;;;5053492;28;20395;-54
2021/05/03 09:22:26;;;;;;;8.52;4.50;;;;;;;;;;5053899;28;20067;-54
2021/05/03 09:24:56;;;;;;;8.75;4.80;;;;;;;;;;5031840;28;20105;-57
2021/05/03 09:27:23;;;;;;;9.00;4.75;;;;;;;;;;5052839;28;20044;-56
2021/05/03 09:29:50;;;;;;;11.20;4.70;;;;;;;;;;5032174;28;20025;-57
2021/05/03 09:32:22;;;;;;;7.47;4.05;;;;;;;;;;5051601;28;20100;-56
2021/05/03 09:34:53;;;;;;;9.38;4.28;;;;;;;;;;5052921;28;20029;-57
2021/05/03 09:37:24;;;;;;;9.13;4.65;;;;;;;;;;5053549;28;20019;-57
2021/05/03 09:39:55;;;;;;;11.05;4.35;;;;;;;;;;5053099;28;20044;-57
2021/05/03 09:42:22;;;;;;;8.82;4.40;;;;;;;;;;5053477;28;20021;-55
2021/05/03 09:45:02;;;;;;;9.02;4.18;;;;;;;;;;5052960;28;20033;-54
2021/05/03 09:47:30;;;;;;;8.65;4.10;;;;;;;;;;5053339;28;20017;-58
2021/05/03 09:49:57;;;;;;;8.10;4.15;;;;;;;;;;5032262;28;20104;-60
2021/05/03 09:52:25;;;;;;;9.90;4.60;;;;;;;;;;5051908;28;20025;-61
2021/05/03 09:54:52;;;;;;;8.15;4.20;;;;;;;;;;5052794;28;20025;-59
2021/05/03 09:57:19;;;;;;;9.30;4.53;;;;;;;;;;5038551;28;20048;-60
2021/05/03 09:59:48;;;;;;;8.85;4.07;;;;;;;;;;5073008;28;20052;-59
2021/05/03 10:02:26;;;;;;;7.43;4.18;;;;;;;;;;5072410;28;20028;-60
2021/05/03 10:04:59;;;;;;;8.05;4.05;;;;;;;;;;5054998;28;20468;-60
2021/05/03 10:07:28;;;;;;;10.07;4.90;;;;;;;;;;5072601;28;20024;-59
2021/05/03 10:10:06;;;;;;;9.77;4.40;;;;;;;;;;5072655;28;20028;-59
2021/05/03 10:12:33;;;;;;;8.43;4.68;;;;;;;;;;5072186;28;20029;-60
2021/05/03 10:15:01;;;;;;;8.10;4.32;;;;;;;;;;5072548;28;20029;-58
2021/05/03 10:17:29;;;;;;;6.70;4.20;;;;;;;;;;5071599;28;20060;-60
2021/05/03 10:19:58;;;;;;;9.50;3.95;;;;;;;;;;5072645;28;20116;-60
2021/05/03 10:22:26;;;;;;;6.75;4.07;;;;;;;;;;5071999;28;20025;-60
2021/05/03 10:24:54;;;;;;;7.85;3.83;;;;;;;;;;5072517;28;20070;-59
2021/05/03 10:27:22;;;;;;;6.78;3.65;;;;;;;;;;5072252;28;20020;-57
2021/05/03 10:29:51;;;;;;;8.02;3.80;;;;;;;;;;5072520;28;20492;-57
2021/05/03 10:32:24;;;;;;;8.25;4.30;;;;;;;;;;5072287;28;20048;-60
2021/05/03 10:34:53;;;;;;;7.40;3.80;;;;;;;;;;5072499;28;20020;-60
2021/05/03 10:37:33;;;;;;;8.75;4.18;;;;;;;;;;5071754;28;20094;-60
2021/05/03 10:40:05;;;;;;;9.32;3.88;;;;;;;;;;5072312;28;20024;-58
2021/05/03 10:42:33;;;;;;;9.05;3.70;;;;;;;;;;5071950;28;20020;-60
2021/05/03 10:45:26;;;;;;;8.25;3.60;;;;;;;;;;5072373;28;20048;-60
2021/05/03 10:47:56;;;;;;;7.53;3.90;;;;;;;;;;5071222;28;20115;-57
2021/05/03 10:52:54;;;;;;;8.48;3.63;;;;;;;;;;5071957;28;20029;-54
2021/05/03 10:55:21;;;;;;;10.45;4.15;;;;;;;;;;5071997;28;20058;-59
2021/05/03 10:58:01;;;;;;;8.52;3.92;;;;;;;;;;5054554;28;20076;-58
2021/05/03 11:00:32;;;;;;;10.45;3.92;;;;;;;;;;5071671;28;20058;-58
2021/05/03 11:03:00;;;;;;;7.57;3.80;;;;;;;;;;5072219;28;20052;-59
2021/05/03 11:05:32;;;;;;;6.03;3.33;;;;;;;;;;5071513;28;20481;-57
2021/05/03 11:08:05;;;;;;;8.38;3.88;;;;;;;;;;5072134;28;20104;-59
2021/05/03 11:10:50;;;;;;;7.40;3.42;;;;;;;;;;5071674;28;20013;-58
2021/05/03 11:13:35;;;;;;;7.57;3.75;;;;;;;;;;5072156;28;20024;-56
2021/05/03 11:16:22;;;;;;;7.15;3.33;;;;;;;;;;5071568;28;20020;-58
2021/05/03 11:18:49;;;;;;;6.30;3.25;;;;;;;;;;5072003;28;20059;-59
2021/05/03 11:21:18;;;;;;;7.45;3.67;;;;;;;;;;5071331;28;20052;-60
2021/05/03 11:23:45;;;;;;;8.52;4.38;;;;;;;;;;5071708;28;20028;-60
2021/05/03 11:26:26;;;;;;;7.20;3.40;;;;;;;;;;5071482;28;20534;-60
2021/05/03 11:28:53;;;;;;;7.55;3.58;;;;;;;;;;5075104;28;20044;-60
2021/05/03 11:31:23;;;;;;;8.30;3.42;;;;;;;;;;5075520;28;20029;-60
2021/05/03 11:34:18;;;;;;;5.25;3.33;;;;;;;;;;5075678;28;20059;-60
2021/05/03 11:36:50;;;;;;;7.72;4.05;;;;;;;;;;5074799;28;20472;-59
2021/05/03 11:39:33;;;;;;;5.07;3.22;;;;;;;;;;5075943;28;20071;-58
2021/05/03 11:42:29;;;;;;;5.22;2.85;;;;;;;;;;5075407;28;20013;-57
2021/05/03 11:44:56;;;;;;;7.07;3.20;;;;;;;;;;5067461;28;20027;-59
2021/05/03 11:47:34;;;;;;;8.23;3.70;;;;;;;;;;5071937;28;20384;-60
2021/05/03 11:50:01;;;;;;;7.05;3.17;;;;;;;;;;5075316;28;20029;-61
2021/05/03 11:52:32;;;;;;;14.25;3.63;;;;;;;;;;5078521;28;20046;-60
2021/05/03 11:55:09;;;;;;;7.70;3.15;;;;;;;;;;5077168;28;20030;-59
2021/05/03 11:57:43;;;;;;;6.07;3.15;;;;;;;;;;5092457;28;20074;-58
2021/05/03 12:00:11;;;;;;;6.72;3.20;;;;;;;;;;5078522;28;20044;-59
2021/05/03 12:02:38;;;;;;;7.35;3.28;;;;;;;;;;5094840;28;20024;-60
2021/05/03 12:05:19;;;;;;;7.80;2.97;;;;;;;;;;5094627;28;20028;-59
2021/05/03 12:07:47;;;;;;;8.10;3.25;;;;;;;;;;5093551;28;20425;-59
2021/05/03 12:10:15;;;;;;;7.07;2.97;;;;;;;;;;5093375;28;20017;-59
2021/05/03 12:12:44;;;;;;;6.53;2.88;;;;;;;;;;5054585;28;20148;-60
2021/05/03 12:15:17;;;;;;;7.75;3.17;;;;;;;;;;5051255;28;20056;-60
2021/05/03 12:17:44;;;;;;;7.63;3.10;;;;;;;;;;5056989;28;20028;-61
2021/05/03 12:20:15;;;;;;;7.25;3.35;;;;;;;;;;5053419;28;20033;-58
2021/05/03 12:23:01;;;;;;;5.30;2.72;;;;;;;;;;5053055;28;20447;-58
2021/05/03 12:25:31;;;;;;;7.72;3.03;;;;;;;;;;5054108;28;20032;-59
2021/05/03 12:27:59;;;;;;;7.97;3.20;;;;;;;;;;5058509;28;20116;-57
2021/05/03 12:30:26;;;;;;;6.90;3.08;;;;;;;;;;5062347;28;20024;-60
2021/05/03 12:32:53;;;;;;;6.82;2.90;;;;;;;;;;5058948;28;20481;-59
2021/05/03 12:35:23;;;;;;;8.23;2.92;;;;;;;;;;5057862;28;20028;-59
2021/05/03 12:37:50;;;;;;;5.95;2.65;;;;;;;;;;5061473;28;20024;-60
2021/05/03 12:40:17;;;;;;;7.60;2.95;;;;;;;;;;5063557;28;20037;-59
2021/05/03 12:42:46;;;;;;;6.75;2.58;;;;;;;;;;5058265;28;20107;-59
2021/05/03 12:45:25;;;;;;;6.88;2.72;;;;;;;;;;5051921;28;20024;-56
2021/05/03 12:48:05;;;;;;;6.65;2.70;;;;;;;;;;5061292;28;20029;-60
2021/05/03 12:53:34;;;;;;;8.88;2.88;;;;;;;;;;5065534;28;20025;-58
2021/05/03 12:56:48;;;;;;;7.15;2.85;;;;;;;;;;5057408;28;20020;-60
2021/05/03 13:09:33;;;;;;;6.03;2.53;;;;;;;;;;5071161;28;20053;-58
2021/05/03 13:12:35;;;;;;;7.00;2.75;;;;;;;;;;5073586;28;20035;-58
2021/05/03 13:29:09;;;;;;;5.78;2.22;;;;;;;;;;5073454;28;20039;-55
2021/05/03 13:31:37;;;;;;;3.92;1.92;;;;;;;;;;5071873;28;20085;-59
2021/05/03 13:34:11;;;;;;;8.80;2.28;;;;;;;;;;5071063;28;20104;-59
2021/05/03 13:36:39;;;;;;;8.65;2.40;;;;;;;;;;5072595;28;20028;-57
2021/05/03 13:39:07;;;;;;;5.72;1.95;;;;;;;;;;5073182;28;20071;-58
2021/05/03 13:41:35;;;;;;;5.82;2.10;;;;;;;;;;5071874;28;20499;-55
2021/05/03 13:44:03;;;;;;;9.30;2.33;;;;;;;;;;5071955;28;20025;-57
2021/05/03 13:46:30;;;;;;;5.63;1.85;;;;;;;;;;5071612;28;20099;-59
2021/05/03 13:48:58;;;;;;;17.08;2.40;;;;;;;;;;5072038;28;20025;-59
2021/05/03 13:51:26;;;;;;;9.75;2.25;;;;;;;;;;5071178;28;20024;-58
2021/05/03 13:53:53;;;;;;;10.52;1.90;;;;;;;;;;5072618;28;20058;-59
2021/05/03 13:56:20;;;;;;;7.05;1.80;;;;;;;;;;5049248;28;20025;-60
2021/05/03 13:58:48;;;;;;;9.23;2.30;;;;;;;;;;5052994;28;20509;-53
2021/05/03 14:01:15;;;;;;;26.45;2.75;;;;;;;;;;5072069;28;20427;-55
2021/05/03 14:03:42;;;;;;;9.95;2.20;;;;;;;;;;5051404;28;20021;-60
2021/05/03 14:06:12;;;;;;;20.15;2.50;;;;;;;;;;5054716;28;20062;-58
2021/05/03 14:08:40;;;;;;;23.70;2.60;;;;;;;;;;5070120;28;20519;-58
2021/05/03 14:11:07;;;;;;;12.27;2.03;;;;;;;;;;5071802;28;20029;-58
2021/05/03 14:13:35;;;;;;;16.50;2.40;;;;;;;;;;5071521;28;20023;-56
2021/05/03 14:16:03;;;;;;;15.93;2.15;;;;;;;;;;5072345;28;20032;-60
2021/05/03 14:18:31;;;;;;;13.98;2.00;;;;;;;;;;5062432;28;20066;-59
2021/05/03 14:21:01;;;;;;;9.70;1.95;;;;;;;;;;5070228;28;20024;-60
2021/05/03 14:23:28;;;;;;;7.38;1.88;;;;;;;;;;5070614;28;20032;-60
2021/05/03 14:25:56;;;;;;;8.85;1.50;;;;;;;;;;5071087;28;20040;-60
2021/05/03 14:28:26;;;;;;;9.25;2.38;;;;;;;;;;5071108;28;20103;-57
2021/05/03 14:30:57;;;;;;;12.27;1.90;;;;;;;;;;5071873;28;20025;-60
2021/05/03 14:33:27;;;;;;;14.05;2.97;;;;;;;;;;5069229;28;20107;-56
2021/05/03 14:35:55;;;;;;;12.32;2.42;;;;;;;;;;5071883;28;20023;-60
2021/05/03 14:38:22;;;;;;;17.52;2.13;;;;;;;;;;5070326;28;20033;-56
2021/05/03 14:40:50;;;;;;;10.50;2.17;;;;;;;;;;5071655;28;20127;-57
2021/05/03 14:43:20;;;;;;;10.95;1.73;;;;;;;;;;5071911;28;20587;-62
2021/05/03 14:56:05;;;;;;;7.50;1.20;;;;;;;;;;5059427;28;20028;-57
2021/05/03 14:58:32;;;;;;;10.68;1.85;;;;;;;;;;5049112;28;20114;-57
2021/05/03 15:01:00;;;;;;;3.83;1.10;;;;;;;;;;5050080;28;20040;-59
2021/05/03 15:03:27;;;;;;;8.35;1.23;;;;;;;;;;5050929;28;20025;-59
2021/05/03 15:06:04;;;;;;;6.70;1.20;;;;;;;;;;5050279;28;20021;-59
2021/05/03 15:08:32;;;;;;;7.68;1.45;;;;;;;;;;5049297;28;20090;-59
2021/05/03 15:10:59;;;;;;;10.05;2.28;;;;;;;;;;5049716;28;20078;-60
2021/05/03 15:19:03;;;;;;;17.02;1.10;;;;;;;;;;5066491;28;20078;-59
2021/05/03 15:21:33;;;;;;;20.90;1.48;;;;;;;;;;5048291;28;20055;-59
2021/05/03 15:24:07;;;;;;;21.88;1.65;;;;;;;;;;5051034;28;20025;-60
2021/05/03 15:26:36;;;;;;;21.40;1.63;;;;;;;;;;5049989;28;20025;-59
2021/05/03 15:29:20;;;;;;;27.42;2.95;;;;;;;;;;5050750;28;20029;-60
2021/05/03 15:34:33;;;;;;;11.15;1.23;;;;;;;;;;5071842;28;20086;-60
2021/05/03 15:37:00;;;;;;;8.68;1.00;;;;;;;;;;5065445;28;20503;-59
2021/05/03 15:39:27;;;;;;;14.77;1.63;;;;;;;;;;5051384;28;20080;-60
2021/05/03 15:41:54;;;;;;;30.25;2.35;;;;;;;;;;5050714;28;20529;-60
2021/05/03 15:44:26;;;;;;;12.70;1.10;;;;;;;;;;5065539;28;20031;-60
2021/05/03 15:46:54;;;;;;;12.90;1.35;;;;;;;;;;5038732;28;20405;-57
2021/05/03 15:49:21;;;;;;;11.07;1.23;;;;;;;;;;5057540;28;20028;-60
2021/05/03 15:51:48;;;;;;;19.10;1.08;;;;;;;;;;5040185;28;20029;-60
2021/05/03 15:54:15;;;;;;;21.27;1.90;;;;;;;;;;5060502;28;20044;-59
2021/05/03 15:56:42;;;;;;;18.40;1.77;;;;;;;;;;5048396;28;20036;-60
2021/05/03 15:59:09;;;;;;;16.00;1.17;;;;;;;;;;5032843;28;20057;-58